createdAt,value
2023-03-17T00:02:33.536Z,75.14
2023-03-17T00:07:42.079Z,75.39
2023-03-17T00:12:50.152Z,75.19
2023-03-17T00:17:59.335Z,75.56
2023-03-17T00:23:06.673Z,75.33
2023-03-17T00:28:18.839Z,76.24
2023-03-17T00:33:28.096Z,76.62
2023-03-17T00:38:35.319Z,76.36
2023-03-17T00:43:41.461Z,76.66
2023-03-17T00:48:50.081Z,77.28
2023-03-17T00:53:57.612Z,77.50
2023-03-17T00:59:05.251Z,77.40
2023-03-17T01:04:13.723Z,77.79
2023-03-17T01:09:24.726Z,78.46
2023-03-17T01:14:32.129Z,78.21
2023-03-17T01:19:39.424Z,78.00
2023-03-17T01:24:48.057Z,78.02
2023-03-17T01:29:57.054Z,78.09
2023-03-17T01:35:04.957Z,78.71
2023-03-17T01:40:19.225Z,78.92
2023-03-17T01:46:22.540Z,79.55
2023-03-17T01:51:34.733Z,79.24
2023-03-17T01:56:45.469Z,79.19
2023-03-17T02:01:59.496Z,79.23
2023-03-17T02:07:07.702Z,79.55
2023-03-17T02:12:17.452Z,79.26
2023-03-17T02:17:28.971Z,79.45
2023-03-17T02:22:37.682Z,79.83
2023-03-17T02:27:47.820Z,79.22
2023-03-17T02:32:55.577Z,79.55
2023-03-17T02:38:02.867Z,80.07
2023-03-17T02:43:09.150Z,80.42
2023-03-17T02:48:17.478Z,80.44
2023-03-17T02:53:25.220Z,80.80
2023-03-17T02:58:33.412Z,80.38
2023-03-17T03:03:41.027Z,80.56
2023-03-17T03:08:48.439Z,80.61
2023-03-17T03:13:56.752Z,81.12
2023-03-17T03:19:04.149Z,80.81
2023-03-17T03:24:12.174Z,80.98
2023-03-17T03:29:19.694Z,80.99
2023-03-17T03:34:28.015Z,81.59
2023-03-17T03:39:41.352Z,81.29
2023-03-17T03:44:49.114Z,80.49
2023-03-17T03:49:56.575Z,80.87
2023-03-17T03:55:04.019Z,81.07
2023-03-17T04:00:15.194Z,80.81
2023-03-17T04:05:22.887Z,80.74
2023-03-17T04:10:32.111Z,80.70
2023-03-17T04:15:41.379Z,80.74
2023-03-17T04:20:48.886Z,80.84
2023-03-17T04:25:57.087Z,81.20
2023-03-17T04:31:04.471Z,81.11
2023-03-17T04:36:19.642Z,81.95
2023-03-17T04:41:27.122Z,81.48
2023-03-17T04:46:33.112Z,81.55
2023-03-17T04:51:40.778Z,81.62
2023-03-17T04:56:48.299Z,81.26
2023-03-17T05:01:56.030Z,81.58
2023-03-17T05:07:04.350Z,82.00
2023-03-17T05:12:15.086Z,82.08
2023-03-17T05:17:23.075Z,81.65
2023-03-17T05:22:30.791Z,81.73
2023-03-17T05:27:38.328Z,81.53
2023-03-17T05:32:47.424Z,81.79
2023-03-17T05:37:55.411Z,81.23
2023-03-17T05:43:03.847Z,81.05
2023-03-17T05:48:12.570Z,80.75
2023-03-17T05:53:20.239Z,80.38
2023-03-17T05:58:28.207Z,80.11
2023-03-17T06:03:38.409Z,79.41
2023-03-17T06:08:45.939Z,79.23
2023-03-17T06:13:53.591Z,78.90
2023-03-17T06:19:01.412Z,78.15
2023-03-17T06:24:10.047Z,78.31
2023-03-17T06:29:17.889Z,77.80
2023-03-17T06:34:27.667Z,77.34
2023-03-17T06:45:14.661Z,75.50
2023-03-17T06:50:22.366Z,75.02
2023-03-17T06:55:29.883Z,74.36
2023-03-17T07:00:38.587Z,73.83
2023-03-17T07:05:45.956Z,72.85
2023-03-17T07:10:51.927Z,71.93
2023-03-17T07:16:00.588Z,71.74
2023-03-17T07:21:08.988Z,71.06
2023-03-17T07:26:16.349Z,70.00
2023-03-17T07:31:24.556Z,69.17
2023-03-17T07:36:32.068Z,68.53
2023-03-17T07:41:39.622Z,67.67
2023-03-17T07:46:47.177Z,66.96
2023-03-17T07:51:54.425Z,66.66
2023-03-17T07:57:02.028Z,66.35
2023-03-17T08:02:12.561Z,65.48
2023-03-17T08:07:20.672Z,64.55
2023-03-17T08:12:28.234Z,63.35
2023-03-17T08:17:36.711Z,63.22
2023-03-17T08:22:44.700Z,62.43
2023-03-17T08:27:52.198Z,61.68
2023-03-17T08:32:59.696Z,60.57
2023-03-17T08:38:08.693Z,59.83
2023-03-17T08:43:16.756Z,59.18
2023-03-17T08:48:25.519Z,58.75
2023-03-17T08:53:35.242Z,58.19
2023-03-17T08:58:44.299Z,58.08
2023-03-17T09:03:52.999Z,57.73
2023-03-17T09:09:00.660Z,57.15
2023-03-17T09:14:08.559Z,57.20
2023-03-17T09:19:16.836Z,56.13
2023-03-17T09:24:25.231Z,55.04
2023-03-17T09:29:33.922Z,55.25
2023-03-17T09:34:42.286Z,54.31
2023-03-17T09:39:49.885Z,53.54
2023-03-17T09:45:12.787Z,51.55
2023-03-17T09:50:26.138Z,51.17
2023-03-17T09:55:36.248Z,51.10
2023-03-17T10:00:44.595Z,50.67
2023-03-17T10:05:52.398Z,50.15
2023-03-17T10:11:07.701Z,49.27
2023-03-17T10:16:20.896Z,48.83
2023-03-17T10:21:34.197Z,47.63
2023-03-17T10:26:46.324Z,47.58
2023-03-17T10:31:57.766Z,46.95
2023-03-17T10:37:08.938Z,47.43
2023-03-17T10:44:54.847Z,45.47
2023-03-17T10:50:02.899Z,44.70
2023-03-17T10:55:14.456Z,44.47
2023-03-17T11:00:24.540Z,44.29
2023-03-17T11:05:30.089Z,44.34
2023-03-17T11:10:41.382Z,44.01
2023-03-17T11:15:50.427Z,42.95
2023-03-17T11:21:00.834Z,43.01
2023-03-17T11:26:17.443Z,42.36
2023-03-17T11:31:30.910Z,40.54
2023-03-17T11:36:48.079Z,40.68
2023-03-17T11:42:08.404Z,40.99
2023-03-17T11:47:28.097Z,40.89
2023-03-17T11:52:41.363Z,40.93
2023-03-17T11:57:53.409Z,39.96
2023-03-17T12:03:01.529Z,40.32
2023-03-17T12:08:13.059Z,40.63
2023-03-17T12:13:22.027Z,39.43
2023-03-17T12:18:32.351Z,39.70
2023-03-17T12:23:44.226Z,39.61
2023-03-17T12:28:53.425Z,38.42
2023-03-17T12:34:41.742Z,39.46
2023-03-17T12:44:30.688Z,39.92
2023-03-17T12:49:53.858Z,39.83
2023-03-17T12:55:04.798Z,39.84
2023-03-17T13:00:28.566Z,38.92
2023-03-17T13:05:37.507Z,37.69
2023-03-17T13:10:48.771Z,37.74
2023-03-17T13:16:07.079Z,38.80
2023-03-17T13:21:16.879Z,39.19
2023-03-17T13:26:45.612Z,39.37
2023-03-17T13:31:53.275Z,38.90
2023-03-17T13:37:15.290Z,38.31
2023-03-17T13:42:35.691Z,38.89
2023-03-17T13:47:44.904Z,38.42
2023-03-17T13:52:56.329Z,38.25
2023-03-17T13:58:24.437Z,38.98
2023-03-17T14:03:41.020Z,39.33
2023-03-17T14:08:53.751Z,39.15
2023-03-17T14:14:31.239Z,39.40
2023-03-17T14:19:41.905Z,39.24
2023-03-17T14:24:54.981Z,39.08
2023-03-17T14:30:09.815Z,38.80
2023-03-17T14:35:18.138Z,38.04
2023-03-17T14:40:29.995Z,38.63
2023-03-17T14:45:49.918Z,37.39
2023-03-17T14:51:05.455Z,38.10
2023-03-17T14:56:13.334Z,37.96
2023-03-17T15:01:23.842Z,35.74
2023-03-17T15:06:35.165Z,37.03
2023-03-17T15:11:46.489Z,36.46
2023-03-17T15:16:56.398Z,36.48
2023-03-17T15:22:22.840Z,36.60
2023-03-17T15:27:31.825Z,36.42
2023-03-17T15:32:39.881Z,36.05
2023-03-17T15:37:47.250Z,35.94
2023-03-17T15:44:20.054Z,36.02
2023-03-17T15:49:30.164Z,36.24
2023-03-17T15:54:37.630Z,36.08
2023-03-17T15:59:45.152Z,36.23
2023-03-17T16:04:52.721Z,36.24
2023-03-17T16:09:59.940Z,36.99
2023-03-17T16:15:21.912Z,37.31
2023-03-17T16:20:34.034Z,37.99
2023-03-17T16:25:41.793Z,38.56
2023-03-17T16:30:50.978Z,39.21
2023-03-17T16:35:58.842Z,39.57
2023-03-17T16:41:10.852Z,40.16
2023-03-17T16:46:19.102Z,40.36
2023-03-17T16:51:26.931Z,40.81
2023-03-17T16:56:34.736Z,41.20
2023-03-17T17:01:42.684Z,41.59
2023-03-17T17:06:50.281Z,41.42
2023-03-17T17:11:58.718Z,41.75
2023-03-17T17:17:06.223Z,42.04
2023-03-17T17:22:15.670Z,42.35
2023-03-17T17:27:23.079Z,41.44
2023-03-17T17:32:30.284Z,41.33
2023-03-17T17:37:36.449Z,41.79
2023-03-17T17:42:44.181Z,41.81
2023-03-17T17:47:52.355Z,42.41
2023-03-17T17:53:05.551Z,42.46
2023-03-17T17:58:16.074Z,42.70
2023-03-17T18:03:25.451Z,43.02
2023-03-17T18:08:32.890Z,43.35
2023-03-17T18:13:41.234Z,43.80
2023-03-17T18:18:48.857Z,44.25
2023-03-17T18:23:57.309Z,44.48
2023-03-17T18:29:05.040Z,44.64
2023-03-17T18:34:17.882Z,44.68
2023-03-17T18:39:25.369Z,44.83
2023-03-17T18:44:32.849Z,44.79
2023-03-17T18:49:40.684Z,44.72
2023-03-17T18:54:48.206Z,45.10
2023-03-17T18:59:56.138Z,45.34
2023-03-17T19:05:03.962Z,45.93
2023-03-17T19:10:14.167Z,45.72
2023-03-17T19:15:21.822Z,45.95
2023-03-17T19:20:29.593Z,46.54
2023-03-17T19:25:37.572Z,46.45
2023-03-17T19:30:45.786Z,46.42
2023-03-17T19:35:58.838Z,46.65
2023-03-17T19:41:07.742Z,46.74
2023-03-17T19:46:15.363Z,47.14
2023-03-17T19:51:23.267Z,47.02
2023-03-17T19:56:31.143Z,47.79
2023-03-17T20:01:39.569Z,47.87
2023-03-17T20:06:47.411Z,47.60
2023-03-17T20:11:56.289Z,47.78
2023-03-17T20:17:03.774Z,48.16
2023-03-17T20:22:10.989Z,48.40
2023-03-17T20:27:16.568Z,48.57
2023-03-17T20:32:23.936Z,48.86
2023-03-17T20:37:31.442Z,49.32
2023-03-17T20:46:09.217Z,50.05
2023-03-17T20:51:18.342Z,50.31
2023-03-17T20:56:28.896Z,50.17
2023-03-17T21:01:40.420Z,50.66
2023-03-17T21:06:47.864Z,51.20
2023-03-17T21:11:55.321Z,51.57
2023-03-17T21:17:02.932Z,52.04
2023-03-17T21:22:10.394Z,52.24
2023-03-17T21:27:18.242Z,52.49
2023-03-17T21:32:26.060Z,52.78
2023-03-17T21:37:33.536Z,53.10
2023-03-17T21:42:41.517Z,53.39
2023-03-17T21:47:48.917Z,53.37
2023-03-17T21:52:56.491Z,53.73
2023-03-17T21:58:04.194Z,53.98
2023-03-17T22:03:11.662Z,54.28
2023-03-17T22:08:19.527Z,54.48
2023-03-17T22:13:26.960Z,54.73
2023-03-17T22:18:34.862Z,54.83
2023-03-17T22:23:42.619Z,55.01
2023-03-17T22:28:51.705Z,55.17
2023-03-17T22:34:01.546Z,55.26
2023-03-17T22:39:11.045Z,55.45
2023-03-17T22:44:18.745Z,55.54
2023-03-17T22:49:26.154Z,55.64
2023-03-17T22:54:33.575Z,55.86
2023-03-17T22:59:39.626Z,56.18
2023-03-17T23:04:47.059Z,56.14
2023-03-17T23:09:54.648Z,56.13
2023-03-17T23:15:02.525Z,56.17
2023-03-17T23:20:12.174Z,56.33
2023-03-17T23:25:20.460Z,56.40
2023-03-17T23:30:28.106Z,56.65
2023-03-17T23:35:36.021Z,56.66
2023-03-17T23:40:43.353Z,57.00
2023-03-17T23:45:53.196Z,56.84
2023-03-17T23:51:01.271Z,57.00
2023-03-17T23:56:09.733Z,57.27
